sensor_id;sensor_type;location;lat;lon;timestamp;temperature;humidity
28336;DHT22;15592;53.656;7.276;2023-08-30T00:00:12;14.90;99.90
28336;DHT22;15592;53.656;7.276;2023-08-30T00:02:37;14.90;99.90
28336;DHT22;15592;53.656;7.276;2023-08-30T00:05:04;14.80;99.90
28336;DHT22;15592;53.656;7.276;2023-08-30T00:07:30;14.80;99.90
28336;DHT22;15592;53.656;7.276;2023-08-30T00:09:59;14.80;99.90
28336;DHT22;15592;53.656;7.276;2023-08-30T00:12:25;14.70;99.90
28336;DHT22;15592;53.656;7.276;2023-08-30T00:14:51;14.70;99.90
28336;DHT22;15592;53.656;7.276;2023-08-30T00:17:17;14.70;99.90
28336;DHT22;15592;53.656;7.276;2023-08-30T00:19:42;14.70;99.90
28336;DHT22;15592;53.656;7.276;2023-08-30T00:22:08;14.70;99.90
28336;DHT22;15592;53.656;7.276;2023-08-30T00:24:34;14.70;99.90
28336;DHT22;15592;53.656;7.276;2023-08-30T00:27:01;14.60;99.90
28336;DHT22;15592;53.656;7.276;2023-08-30T00:29:30;14.60;99.90
28336;DHT22;15592;53.656;7.276;2023-08-30T00:31:56;14.50;99.90
28336;DHT22;15592;53.656;7.276;2023-08-30T00:34:22;14.50;99.90
28336;DHT22;15592;53.656;7.276;2023-08-30T00:36:48;14.40;99.90
28336;DHT22;15592;53.656;7.276;2023-08-30T00:39:13;14.40;99.90
28336;DHT22;15592;53.656;7.276;2023-08-30T00:41:40;14.40;99.90
28336;DHT22;15592;53.656;7.276;2023-08-30T00:44:06;14.30;99.90
28336;DHT22;15592;53.656;7.276;2023-08-30T00:46:32;14.30;99.90
28336;DHT22;15592;53.656;7.276;2023-08-30T00:48:59;14.30;99.90
28336;DHT22;15592;53.656;7.276;2023-08-30T00:51:26;14.30;99.90
28336;DHT22;15592;53.656;7.276;2023-08-30T00:53:53;14.30;99.90
28336;DHT22;15592;53.656;7.276;2023-08-30T00:56:19;14.30;99.90
28336;DHT22;15592;53.656;7.276;2023-08-30T00:58:46;14.30;99.90
28336;DHT22;15592;53.656;7.276;2023-08-30T01:01:12;14.40;99.90
28336;DHT22;15592;53.656;7.276;2023-08-30T01:03:39;14.40;99.90
28336;DHT22;15592;53.656;7.276;2023-08-30T01:06:05;14.40;99.90
28336;DHT22;15592;53.656;7.276;2023-08-30T01:08:30;14.40;99.90
28336;DHT22;15592;53.656;7.276;2023-08-30T01:16:31;14.30;99.90
28336;DHT22;15592;53.656;7.276;2023-08-30T01:18:58;14.30;99.90
28336;DHT22;15592;53.656;7.276;2023-08-30T01:22:03;14.30;99.90
28336;DHT22;15592;53.656;7.276;2023-08-30T01:27:15;14.20;99.90
28336;DHT22;15592;53.656;7.276;2023-08-30T01:29:44;14.20;99.90
28336;DHT22;15592;53.656;7.276;2023-08-30T01:32:10;14.20;99.90
28336;DHT22;15592;53.656;7.276;2023-08-30T01:34:38;14.20;99.90
28336;DHT22;15592;53.656;7.276;2023-08-30T01:37:08;14.10;99.90
28336;DHT22;15592;53.656;7.276;2023-08-30T01:39:36;14.10;99.90
28336;DHT22;15592;53.656;7.276;2023-08-30T01:42:03;14.10;99.90
28336;DHT22;15592;53.656;7.276;2023-08-30T01:44:30;14.10;99.90
28336;DHT22;15592;53.656;7.276;2023-08-30T01:46:57;14.10;99.90
28336;DHT22;15592;53.656;7.276;2023-08-30T01:49:24;14.00;99.90
28336;DHT22;15592;53.656;7.276;2023-08-30T01:51:51;14.00;99.90
28336;DHT22;15592;53.656;7.276;2023-08-30T01:54:18;14.00;99.90
28336;DHT22;15592;53.656;7.276;2023-08-30T01:56:45;14.00;99.90
28336;DHT22;15592;53.656;7.276;2023-08-30T01:59:12;13.90;99.90
28336;DHT22;15592;53.656;7.276;2023-08-30T02:01:37;13.90;99.90
28336;DHT22;15592;53.656;7.276;2023-08-30T02:04:03;13.90;99.90
28336;DHT22;15592;53.656;7.276;2023-08-30T02:11:34;13.80;99.90
28336;DHT22;15592;53.656;7.276;2023-08-30T02:14:01;13.80;99.90
28336;DHT22;15592;53.656;7.276;2023-08-30T02:16:30;13.80;99.90
28336;DHT22;15592;53.656;7.276;2023-08-30T02:18:56;13.80;99.90
28336;DHT22;15592;53.656;7.276;2023-08-30T02:21:22;13.70;99.90
28336;DHT22;15592;53.656;7.276;2023-08-30T02:23:51;13.70;99.90
28336;DHT22;15592;53.656;7.276;2023-08-30T02:26:20;13.70;99.90
28336;DHT22;15592;53.656;7.276;2023-08-30T02:28:46;13.60;99.90
28336;DHT22;15592;53.656;7.276;2023-08-30T02:31:11;13.60;99.90
28336;DHT22;15592;53.656;7.276;2023-08-30T02:33:37;13.60;99.90
28336;DHT22;15592;53.656;7.276;2023-08-30T02:36:03;13.50;99.90
28336;DHT22;15592;53.656;7.276;2023-08-30T02:38:29;13.50;99.90
28336;DHT22;15592;53.656;7.276;2023-08-30T02:40:55;13.50;99.90
28336;DHT22;15592;53.656;7.276;2023-08-30T02:43:21;13.50;99.90
28336;DHT22;15592;53.656;7.276;2023-08-30T02:45:47;13.50;99.90
28336;DHT22;15592;53.656;7.276;2023-08-30T02:48:13;13.50;99.90
28336;DHT22;15592;53.656;7.276;2023-08-30T02:50:39;13.50;99.90
28336;DHT22;15592;53.656;7.276;2023-08-30T02:53:04;13.50;99.90
28336;DHT22;15592;53.656;7.276;2023-08-30T02:55:34;13.50;99.90
28336;DHT22;15592;53.656;7.276;2023-08-30T02:57:59;13.50;99.90
28336;DHT22;15592;53.656;7.276;2023-08-30T03:00:25;13.50;99.90
28336;DHT22;15592;53.656;7.276;2023-08-30T03:02:51;13.50;99.90
28336;DHT22;15592;53.656;7.276;2023-08-30T03:05:17;13.50;99.90
28336;DHT22;15592;53.656;7.276;2023-08-30T03:07:43;13.50;99.90
28336;DHT22;15592;53.656;7.276;2023-08-30T03:10:09;13.60;99.90
28336;DHT22;15592;53.656;7.276;2023-08-30T03:12:35;13.50;99.90
28336;DHT22;15592;53.656;7.276;2023-08-30T03:15:01;13.50;99.90
28336;DHT22;15592;53.656;7.276;2023-08-30T03:17:26;13.50;99.90
28336;DHT22;15592;53.656;7.276;2023-08-30T03:19:52;13.50;99.90
28336;DHT22;15592;53.656;7.276;2023-08-30T03:22:18;13.40;99.90
28336;DHT22;15592;53.656;7.276;2023-08-30T03:24:44;13.40;99.90
28336;DHT22;15592;53.656;7.276;2023-08-30T03:27:10;13.40;99.90
28336;DHT22;15592;53.656;7.276;2023-08-30T03:29:35;13.40;99.90
28336;DHT22;15592;53.656;7.276;2023-08-30T03:32:01;13.40;99.90
28336;DHT22;15592;53.656;7.276;2023-08-30T03:34:27;13.40;99.90
28336;DHT22;15592;53.656;7.276;2023-08-30T03:36:53;13.40;99.90
28336;DHT22;15592;53.656;7.276;2023-08-30T03:39:22;13.40;99.90
28336;DHT22;15592;53.656;7.276;2023-08-30T03:41:49;13.30;99.90
28336;DHT22;15592;53.656;7.276;2023-08-30T03:44:15;13.30;99.90
28336;DHT22;15592;53.656;7.276;2023-08-30T03:46:40;13.30;99.90
28336;DHT22;15592;53.656;7.276;2023-08-30T03:49:06;13.20;99.90
28336;DHT22;15592;53.656;7.276;2023-08-30T03:51:32;13.20;99.90
28336;DHT22;15592;53.656;7.276;2023-08-30T03:53:57;13.20;99.90
28336;DHT22;15592;53.656;7.276;2023-08-30T03:56:23;13.20;99.90
28336;DHT22;15592;53.656;7.276;2023-08-30T03:58:48;13.20;99.90
28336;DHT22;15592;53.656;7.276;2023-08-30T04:01:14;13.20;99.90
28336;DHT22;15592;53.656;7.276;2023-08-30T04:03:40;13.20;99.90
28336;DHT22;15592;53.656;7.276;2023-08-30T04:06:05;13.20;99.90
28336;DHT22;15592;53.656;7.276;2023-08-30T04:08:31;13.10;99.90
28336;DHT22;15592;53.656;7.276;2023-08-30T04:10:57;13.10;99.90
28336;DHT22;15592;53.656;7.276;2023-08-30T04:13:23;13.10;99.90
28336;DHT22;15592;53.656;7.276;2023-08-30T04:16:21;13.10;99.90
28336;DHT22;15592;53.656;7.276;2023-08-30T04:18:47;13.10;99.90
28336;DHT22;15592;53.656;7.276;2023-08-30T04:21:35;13.10;99.90
28336;DHT22;15592;53.656;7.276;2023-08-30T04:24:18;13.00;99.90
28336;DHT22;15592;53.656;7.276;2023-08-30T04:26:50;13.00;99.90
28336;DHT22;15592;53.656;7.276;2023-08-30T04:29:36;13.00;99.90
28336;DHT22;15592;53.656;7.276;2023-08-30T04:38:13;12.90;99.90
28336;DHT22;15592;53.656;7.276;2023-08-30T04:40:42;12.90;99.90
28336;DHT22;15592;53.656;7.276;2023-08-30T04:43:11;12.90;99.90
28336;DHT22;15592;53.656;7.276;2023-08-30T04:45:40;12.80;99.90
28336;DHT22;15592;53.656;7.276;2023-08-30T04:48:06;12.80;99.90
28336;DHT22;15592;53.656;7.276;2023-08-30T04:50:32;12.80;99.90
28336;DHT22;15592;53.656;7.276;2023-08-30T04:52:58;12.80;99.90
28336;DHT22;15592;53.656;7.276;2023-08-30T04:55:24;12.80;99.90
28336;DHT22;15592;53.656;7.276;2023-08-30T04:57:50;12.80;99.90
28336;DHT22;15592;53.656;7.276;2023-08-30T05:00:17;12.70;99.90
28336;DHT22;15592;53.656;7.276;2023-08-30T05:02:42;12.70;99.90
28336;DHT22;15592;53.656;7.276;2023-08-30T05:05:09;12.70;99.90
28336;DHT22;15592;53.656;7.276;2023-08-30T05:07:35;12.70;99.90
28336;DHT22;15592;53.656;7.276;2023-08-30T05:10:01;12.70;99.90
28336;DHT22;15592;53.656;7.276;2023-08-30T05:12:27;12.70;99.90
28336;DHT22;15592;53.656;7.276;2023-08-30T05:14:52;12.70;99.90
28336;DHT22;15592;53.656;7.276;2023-08-30T05:19:48;12.70;99.90
28336;DHT22;15592;53.656;7.276;2023-08-30T05:22:13;12.70;99.90
28336;DHT22;15592;53.656;7.276;2023-08-30T05:24:39;12.60;99.90
28336;DHT22;15592;53.656;7.276;2023-08-30T05:27:05;12.60;99.90
28336;DHT22;15592;53.656;7.276;2023-08-30T05:29:30;12.60;99.90
28336;DHT22;15592;53.656;7.276;2023-08-30T05:31:56;12.60;99.90
28336;DHT22;15592;53.656;7.276;2023-08-30T05:34:22;12.60;99.90
28336;DHT22;15592;53.656;7.276;2023-08-30T05:36:49;12.60;99.90
28336;DHT22;15592;53.656;7.276;2023-08-30T05:39:14;12.60;99.90
28336;DHT22;15592;53.656;7.276;2023-08-30T05:41:40;12.60;99.90
28336;DHT22;15592;53.656;7.276;2023-08-30T05:44:06;12.60;99.90
28336;DHT22;15592;53.656;7.276;2023-08-30T05:46:32;12.60;99.90
28336;DHT22;15592;53.656;7.276;2023-08-30T05:48:58;12.60;99.90
28336;DHT22;15592;53.656;7.276;2023-08-30T05:51:23;12.60;99.90
28336;DHT22;15592;53.656;7.276;2023-08-30T05:53:49;12.60;99.90
28336;DHT22;15592;53.656;7.276;2023-08-30T05:56:15;12.70;99.90
28336;DHT22;15592;53.656;7.276;2023-08-30T05:58:41;12.70;99.90
28336;DHT22;15592;53.656;7.276;2023-08-30T06:01:06;12.70;99.90
28336;DHT22;15592;53.656;7.276;2023-08-30T06:03:33;12.70;99.90
28336;DHT22;15592;53.656;7.276;2023-08-30T06:05:58;12.70;99.90
28336;DHT22;15592;53.656;7.276;2023-08-30T06:08:24;12.70;99.90
28336;DHT22;15592;53.656;7.276;2023-08-30T06:10:49;12.70;99.90
28336;DHT22;15592;53.656;7.276;2023-08-30T06:13:15;12.80;99.90
28336;DHT22;15592;53.656;7.276;2023-08-30T06:15:41;12.80;99.90
28336;DHT22;15592;53.656;7.276;2023-08-30T06:18:07;12.80;99.90
28336;DHT22;15592;53.656;7.276;2023-08-30T06:20:32;12.90;99.90
28336;DHT22;15592;53.656;7.276;2023-08-30T06:22:58;12.90;99.90
28336;DHT22;15592;53.656;7.276;2023-08-30T06:25:24;12.90;99.90
28336;DHT22;15592;53.656;7.276;2023-08-30T06:27:58;12.90;99.90
28336;DHT22;15592;53.656;7.276;2023-08-30T06:30:25;12.90;99.90
28336;DHT22;15592;53.656;7.276;2023-08-30T06:32:51;13.00;99.90
28336;DHT22;15592;53.656;7.276;2023-08-30T06:35:17;13.00;99.90
28336;DHT22;15592;53.656;7.276;2023-08-30T06:37:42;13.00;99.90
28336;DHT22;15592;53.656;7.276;2023-08-30T06:40:08;13.10;99.90
28336;DHT22;15592;53.656;7.276;2023-08-30T06:42:34;13.10;99.90
28336;DHT22;15592;53.656;7.276;2023-08-30T06:45:01;13.20;99.90
28336;DHT22;15592;53.656;7.276;2023-08-30T06:47:27;13.20;99.90
28336;DHT22;15592;53.656;7.276;2023-08-30T06:49:53;13.30;99.90
28336;DHT22;15592;53.656;7.276;2023-08-30T06:52:19;13.30;99.90
28336;DHT22;15592;53.656;7.276;2023-08-30T06:54:44;13.40;99.90
28336;DHT22;15592;53.656;7.276;2023-08-30T06:57:10;13.60;99.90
28336;DHT22;15592;53.656;7.276;2023-08-30T06:59:36;13.60;99.90
28336;DHT22;15592;53.656;7.276;2023-08-30T07:02:02;13.60;99.90
28336;DHT22;15592;53.656;7.276;2023-08-30T07:04:28;13.60;99.90
28336;DHT22;15592;53.656;7.276;2023-08-30T07:06:54;13.60;99.90
28336;DHT22;15592;53.656;7.276;2023-08-30T07:09:19;13.60;99.90
28336;DHT22;15592;53.656;7.276;2023-08-30T07:11:45;13.60;99.90
28336;DHT22;15592;53.656;7.276;2023-08-30T07:14:11;13.60;99.90
28336;DHT22;15592;53.656;7.276;2023-08-30T07:16:40;13.70;99.90
28336;DHT22;15592;53.656;7.276;2023-08-30T07:19:06;13.70;99.90
28336;DHT22;15592;53.656;7.276;2023-08-30T07:21:32;13.80;99.90
28336;DHT22;15592;53.656;7.276;2023-08-30T07:23:58;13.90;99.90
28336;DHT22;15592;53.656;7.276;2023-08-30T07:26:24;13.90;99.90
28336;DHT22;15592;53.656;7.276;2023-08-30T07:28:49;14.00;99.90
28336;DHT22;15592;53.656;7.276;2023-08-30T07:31:15;14.00;99.90
28336;DHT22;15592;53.656;7.276;2023-08-30T07:33:44;14.10;99.90
28336;DHT22;15592;53.656;7.276;2023-08-30T07:36:09;14.10;99.90
28336;DHT22;15592;53.656;7.276;2023-08-30T07:38:35;14.10;99.90
28336;DHT22;15592;53.656;7.276;2023-08-30T07:41:01;14.10;99.90
28336;DHT22;15592;53.656;7.276;2023-08-30T07:43:27;14.10;99.90
28336;DHT22;15592;53.656;7.276;2023-08-30T07:45:53;14.20;99.90
28336;DHT22;15592;53.656;7.276;2023-08-30T07:48:18;14.20;99.90
28336;DHT22;15592;53.656;7.276;2023-08-30T07:50:44;14.20;99.90
28336;DHT22;15592;53.656;7.276;2023-08-30T07:53:10;14.20;99.90
28336;DHT22;15592;53.656;7.276;2023-08-30T07:55:36;14.20;99.90
28336;DHT22;15592;53.656;7.276;2023-08-30T07:58:02;14.20;99.90
28336;DHT22;15592;53.656;7.276;2023-08-30T08:00:30;14.20;99.90
28336;DHT22;15592;53.656;7.276;2023-08-30T08:02:56;14.20;99.90
28336;DHT22;15592;53.656;7.276;2023-08-30T08:05:22;14.20;99.90
28336;DHT22;15592;53.656;7.276;2023-08-30T08:07:52;14.30;99.90
28336;DHT22;15592;53.656;7.276;2023-08-30T08:10:18;14.30;99.90
28336;DHT22;15592;53.656;7.276;2023-08-30T08:12:44;14.20;99.90
28336;DHT22;15592;53.656;7.276;2023-08-30T08:15:10;14.30;99.90
28336;DHT22;15592;53.656;7.276;2023-08-30T08:17:36;14.30;99.90
28336;DHT22;15592;53.656;7.276;2023-08-30T08:20:03;14.30;99.90
28336;DHT22;15592;53.656;7.276;2023-08-30T08:22:29;14.40;99.90
28336;DHT22;15592;53.656;7.276;2023-08-30T08:24:55;14.40;99.90
28336;DHT22;15592;53.656;7.276;2023-08-30T08:27:22;14.50;99.90
28336;DHT22;15592;53.656;7.276;2023-08-30T08:29:48;14.40;99.90
28336;DHT22;15592;53.656;7.276;2023-08-30T08:32:13;14.40;99.90
28336;DHT22;15592;53.656;7.276;2023-08-30T08:34:39;14.50;99.90
28336;DHT22;15592;53.656;7.276;2023-08-30T08:37:06;14.50;99.90
28336;DHT22;15592;53.656;7.276;2023-08-30T08:39:32;14.50;99.90
28336;DHT22;15592;53.656;7.276;2023-08-30T08:41:59;14.50;99.90
28336;DHT22;15592;53.656;7.276;2023-08-30T08:44:26;14.60;99.90
28336;DHT22;15592;53.656;7.276;2023-08-30T08:46:56;14.70;99.90
28336;DHT22;15592;53.656;7.276;2023-08-30T08:49:23;14.70;99.90
28336;DHT22;15592;53.656;7.276;2023-08-30T08:51:53;14.80;99.90
28336;DHT22;15592;53.656;7.276;2023-08-30T08:54:20;14.90;99.90
28336;DHT22;15592;53.656;7.276;2023-08-30T08:56:46;14.90;99.90
28336;DHT22;15592;53.656;7.276;2023-08-30T08:59:12;15.00;99.90
28336;DHT22;15592;53.656;7.276;2023-08-30T09:01:39;15.10;99.90
28336;DHT22;15592;53.656;7.276;2023-08-30T09:04:11;15.20;99.90
28336;DHT22;15592;53.656;7.276;2023-08-30T09:06:38;15.30;99.90
28336;DHT22;15592;53.656;7.276;2023-08-30T09:09:05;15.30;99.90
28336;DHT22;15592;53.656;7.276;2023-08-30T09:11:32;15.40;99.90
28336;DHT22;15592;53.656;7.276;2023-08-30T09:13:58;15.50;99.90
28336;DHT22;15592;53.656;7.276;2023-08-30T09:16:23;15.60;99.90
28336;DHT22;15592;53.656;7.276;2023-08-30T09:19:02;15.70;99.90
28336;DHT22;15592;53.656;7.276;2023-08-30T09:21:28;15.80;99.90
28336;DHT22;15592;53.656;7.276;2023-08-30T09:24:02;15.80;99.90
28336;DHT22;15592;53.656;7.276;2023-08-30T09:26:28;15.70;99.90
28336;DHT22;15592;53.656;7.276;2023-08-30T09:29:10;15.70;99.90
28336;DHT22;15592;53.656;7.276;2023-08-30T09:31:39;15.70;99.90
28336;DHT22;15592;53.656;7.276;2023-08-30T09:34:08;15.70;99.90
28336;DHT22;15592;53.656;7.276;2023-08-30T09:36:37;15.70;99.90
28336;DHT22;15592;53.656;7.276;2023-08-30T09:39:13;15.60;99.90
28336;DHT22;15592;53.656;7.276;2023-08-30T09:41:47;15.60;99.90
28336;DHT22;15592;53.656;7.276;2023-08-30T09:44:18;15.60;99.90
28336;DHT22;15592;53.656;7.276;2023-08-30T09:46:45;15.60;99.90
28336;DHT22;15592;53.656;7.276;2023-08-30T09:49:12;15.70;99.90
28336;DHT22;15592;53.656;7.276;2023-08-30T09:51:39;15.70;99.90
28336;DHT22;15592;53.656;7.276;2023-08-30T09:54:16;15.70;99.90
28336;DHT22;15592;53.656;7.276;2023-08-30T09:56:43;15.70;99.90
28336;DHT22;15592;53.656;7.276;2023-08-30T09:59:10;15.70;99.90
28336;DHT22;15592;53.656;7.276;2023-08-30T10:01:37;15.60;99.90
28336;DHT22;15592;53.656;7.276;2023-08-30T10:04:03;15.70;99.90
28336;DHT22;15592;53.656;7.276;2023-08-30T10:06:30;15.70;99.90
28336;DHT22;15592;53.656;7.276;2023-08-30T10:08:56;15.70;99.90
28336;DHT22;15592;53.656;7.276;2023-08-30T10:11:23;15.70;99.90
28336;DHT22;15592;53.656;7.276;2023-08-30T10:13:51;15.70;99.90
28336;DHT22;15592;53.656;7.276;2023-08-30T10:16:22;15.70;99.90
28336;DHT22;15592;53.656;7.276;2023-08-30T10:19:16;15.70;99.90
28336;DHT22;15592;53.656;7.276;2023-08-30T10:21:52;15.70;99.90
28336;DHT22;15592;53.656;7.276;2023-08-30T10:24:20;15.70;99.90
28336;DHT22;15592;53.656;7.276;2023-08-30T10:26:47;15.70;99.90
28336;DHT22;15592;53.656;7.276;2023-08-30T10:29:14;15.80;99.90
28336;DHT22;15592;53.656;7.276;2023-08-30T10:31:41;15.80;99.90
28336;DHT22;15592;53.656;7.276;2023-08-30T10:34:17;15.80;99.90
28336;DHT22;15592;53.656;7.276;2023-08-30T10:36:43;15.80;99.90
28336;DHT22;15592;53.656;7.276;2023-08-30T10:39:13;15.90;99.90
28336;DHT22;15592;53.656;7.276;2023-08-30T10:41:57;15.90;99.90
28336;DHT22;15592;53.656;7.276;2023-08-30T10:44:23;16.00;99.90
28336;DHT22;15592;53.656;7.276;2023-08-30T10:46:53;16.10;99.90
28336;DHT22;15592;53.656;7.276;2023-08-30T10:49:19;16.20;99.90
28336;DHT22;15592;53.656;7.276;2023-08-30T10:51:45;16.30;99.90
28336;DHT22;15592;53.656;7.276;2023-08-30T10:54:16;16.40;99.90
28336;DHT22;15592;53.656;7.276;2023-08-30T10:56:46;16.40;99.90
28336;DHT22;15592;53.656;7.276;2023-08-30T10:59:19;16.40;99.90
28336;DHT22;15592;53.656;7.276;2023-08-30T11:01:49;16.50;99.90
28336;DHT22;15592;53.656;7.276;2023-08-30T11:04:16;16.40;99.90
28336;DHT22;15592;53.656;7.276;2023-08-30T11:06:45;16.50;99.90
28336;DHT22;15592;53.656;7.276;2023-08-30T11:09:30;16.50;99.90
28336;DHT22;15592;53.656;7.276;2023-08-30T11:11:56;16.50;99.90
28336;DHT22;15592;53.656;7.276;2023-08-30T11:14:22;16.50;99.90
28336;DHT22;15592;53.656;7.276;2023-08-30T11:16:47;16.40;99.90
28336;DHT22;15592;53.656;7.276;2023-08-30T11:19:13;16.40;99.90
28336;DHT22;15592;53.656;7.276;2023-08-30T11:21:42;16.40;99.90
28336;DHT22;15592;53.656;7.276;2023-08-30T11:24:08;16.40;99.90
28336;DHT22;15592;53.656;7.276;2023-08-30T11:26:35;16.40;99.90
28336;DHT22;15592;53.656;7.276;2023-08-30T11:29:07;16.50;99.90
28336;DHT22;15592;53.656;7.276;2023-08-30T11:31:33;16.50;99.90
28336;DHT22;15592;53.656;7.276;2023-08-30T11:34:00;16.50;99.90
28336;DHT22;15592;53.656;7.276;2023-08-30T11:36:27;16.40;99.90
28336;DHT22;15592;53.656;7.276;2023-08-30T11:38:54;16.40;99.90
28336;DHT22;15592;53.656;7.276;2023-08-30T11:41:20;16.40;99.90
28336;DHT22;15592;53.656;7.276;2023-08-30T11:43:50;16.40;99.90
28336;DHT22;15592;53.656;7.276;2023-08-30T11:46:20;16.40;99.90
28336;DHT22;15592;53.656;7.276;2023-08-30T11:48:47;16.40;99.90
28336;DHT22;15592;53.656;7.276;2023-08-30T11:51:13;16.40;99.90
28336;DHT22;15592;53.656;7.276;2023-08-30T11:53:39;16.40;99.90
28336;DHT22;15592;53.656;7.276;2023-08-30T11:56:06;16.50;99.90
28336;DHT22;15592;53.656;7.276;2023-08-30T11:58:33;16.60;99.90
28336;DHT22;15592;53.656;7.276;2023-08-30T12:00:59;16.80;99.90
28336;DHT22;15592;53.656;7.276;2023-08-30T12:03:27;17.00;99.90
28336;DHT22;15592;53.656;7.276;2023-08-30T12:05:54;17.10;99.90
28336;DHT22;15592;53.656;7.276;2023-08-30T12:08:30;17.20;99.90
28336;DHT22;15592;53.656;7.276;2023-08-30T12:10:57;17.30;99.90
28336;DHT22;15592;53.656;7.276;2023-08-30T12:13:28;17.40;99.90
28336;DHT22;15592;53.656;7.276;2023-08-30T12:15:55;17.60;99.90
28336;DHT22;15592;53.656;7.276;2023-08-30T12:18:32;17.70;99.90
28336;DHT22;15592;53.656;7.276;2023-08-30T12:20:59;17.70;99.90
28336;DHT22;15592;53.656;7.276;2023-08-30T12:23:27;17.80;99.90
28336;DHT22;15592;53.656;7.276;2023-08-30T12:26:03;17.70;99.90
28336;DHT22;15592;53.656;7.276;2023-08-30T12:28:36;17.70;99.90
28336;DHT22;15592;53.656;7.276;2023-08-30T12:31:03;17.80;99.90
28336;DHT22;15592;53.656;7.276;2023-08-30T12:33:36;17.70;99.90
28336;DHT22;15592;53.656;7.276;2023-08-30T12:36:03;17.60;99.90
28336;DHT22;15592;53.656;7.276;2023-08-30T12:38:29;17.60;99.90
28336;DHT22;15592;53.656;7.276;2023-08-30T12:40:56;17.60;99.90
28336;DHT22;15592;53.656;7.276;2023-08-30T12:43:23;17.60;99.90
28336;DHT22;15592;53.656;7.276;2023-08-30T12:45:49;17.60;99.90
28336;DHT22;15592;53.656;7.276;2023-08-30T12:48:17;17.50;99.90
28336;DHT22;15592;53.656;7.276;2023-08-30T12:50:45;17.50;99.90
28336;DHT22;15592;53.656;7.276;2023-08-30T12:53:11;17.50;99.90
28336;DHT22;15592;53.656;7.276;2023-08-30T12:55:37;17.50;99.90
28336;DHT22;15592;53.656;7.276;2023-08-30T12:58:09;17.50;99.90
28336;DHT22;15592;53.656;7.276;2023-08-30T13:00:35;17.50;99.90
28336;DHT22;15592;53.656;7.276;2023-08-30T13:03:01;17.50;99.90
28336;DHT22;15592;53.656;7.276;2023-08-30T13:05:29;17.50;99.90
28336;DHT22;15592;53.656;7.276;2023-08-30T13:07:56;17.50;99.90
28336;DHT22;15592;53.656;7.276;2023-08-30T13:10:21;17.50;99.90
28336;DHT22;15592;53.656;7.276;2023-08-30T13:12:47;17.50;99.90
28336;DHT22;15592;53.656;7.276;2023-08-30T13:15:13;17.40;99.90
28336;DHT22;15592;53.656;7.276;2023-08-30T13:17:38;17.40;99.90
28336;DHT22;15592;53.656;7.276;2023-08-30T13:20:04;17.30;99.90
28336;DHT22;15592;53.656;7.276;2023-08-30T13:22:30;17.30;99.90
28336;DHT22;15592;53.656;7.276;2023-08-30T13:24:56;17.30;99.90
28336;DHT22;15592;53.656;7.276;2023-08-30T13:27:22;17.30;99.90
28336;DHT22;15592;53.656;7.276;2023-08-30T13:29:48;17.30;99.90
28336;DHT22;15592;53.656;7.276;2023-08-30T13:32:14;17.30;99.90
28336;DHT22;15592;53.656;7.276;2023-08-30T13:34:40;17.30;99.90
28336;DHT22;15592;53.656;7.276;2023-08-30T13:37:06;17.40;99.90
28336;DHT22;15592;53.656;7.276;2023-08-30T13:39:32;17.40;99.90
28336;DHT22;15592;53.656;7.276;2023-08-30T13:41:58;17.30;99.90
28336;DHT22;15592;53.656;7.276;2023-08-30T13:44:23;17.30;99.90
28336;DHT22;15592;53.656;7.276;2023-08-30T13:46:50;17.20;99.90
28336;DHT22;15592;53.656;7.276;2023-08-30T13:49:16;17.20;99.90
28336;DHT22;15592;53.656;7.276;2023-08-30T13:51:44;17.20;99.90
28336;DHT22;15592;53.656;7.276;2023-08-30T13:54:10;17.10;99.90
28336;DHT22;15592;53.656;7.276;2023-08-30T13:56:36;17.10;99.90
28336;DHT22;15592;53.656;7.276;2023-08-30T13:59:03;17.10;99.90
28336;DHT22;15592;53.656;7.276;2023-08-30T14:01:32;17.10;99.90
28336;DHT22;15592;53.656;7.276;2023-08-30T14:03:57;17.10;99.90
28336;DHT22;15592;53.656;7.276;2023-08-30T14:06:23;17.10;99.90
28336;DHT22;15592;53.656;7.276;2023-08-30T14:08:48;17.10;99.90
28336;DHT22;15592;53.656;7.276;2023-08-30T14:11:14;17.10;99.90
28336;DHT22;15592;53.656;7.276;2023-08-30T14:13:40;17.10;99.90
28336;DHT22;15592;53.656;7.276;2023-08-30T14:16:06;17.00;99.90
28336;DHT22;15592;53.656;7.276;2023-08-30T14:18:32;17.00;99.90
28336;DHT22;15592;53.656;7.276;2023-08-30T14:20:58;17.00;99.90
28336;DHT22;15592;53.656;7.276;2023-08-30T14:23:25;16.90;99.90
28336;DHT22;15592;53.656;7.276;2023-08-30T14:26:01;16.90;99.90
28336;DHT22;15592;53.656;7.276;2023-08-30T14:28:29;16.80;99.90
28336;DHT22;15592;53.656;7.276;2023-08-30T14:30:54;16.70;99.90
28336;DHT22;15592;53.656;7.276;2023-08-30T14:33:20;16.60;99.90
28336;DHT22;15592;53.656;7.276;2023-08-30T14:35:46;16.60;99.90
28336;DHT22;15592;53.656;7.276;2023-08-30T14:38:12;16.40;99.90
28336;DHT22;15592;53.656;7.276;2023-08-30T14:40:38;16.30;99.90
28336;DHT22;15592;53.656;7.276;2023-08-30T14:43:04;16.20;99.90
28336;DHT22;15592;53.656;7.276;2023-08-30T14:45:31;16.10;99.90
28336;DHT22;15592;53.656;7.276;2023-08-30T14:47:57;16.00;99.90
28336;DHT22;15592;53.656;7.276;2023-08-30T14:50:22;16.00;99.90
28336;DHT22;15592;53.656;7.276;2023-08-30T14:52:48;15.90;99.90
28336;DHT22;15592;53.656;7.276;2023-08-30T14:55:16;15.90;99.90
28336;DHT22;15592;53.656;7.276;2023-08-30T14:57:41;15.80;99.90
28336;DHT22;15592;53.656;7.276;2023-08-30T15:00:07;15.80;99.90
28336;DHT22;15592;53.656;7.276;2023-08-30T15:02:33;15.70;99.90
28336;DHT22;15592;53.656;7.276;2023-08-30T15:04:59;15.70;99.90
28336;DHT22;15592;53.656;7.276;2023-08-30T15:07:25;15.70;99.90
28336;DHT22;15592;53.656;7.276;2023-08-30T15:09:51;15.60;99.90
28336;DHT22;15592;53.656;7.276;2023-08-30T15:12:17;15.60;99.90
28336;DHT22;15592;53.656;7.276;2023-08-30T15:14:42;15.60;99.90
28336;DHT22;15592;53.656;7.276;2023-08-30T15:17:09;15.60;99.90
28336;DHT22;15592;53.656;7.276;2023-08-30T15:19:35;15.60;99.90
28336;DHT22;15592;53.656;7.276;2023-08-30T15:22:01;15.60;99.90
28336;DHT22;15592;53.656;7.276;2023-08-30T15:24:27;15.50;99.90
28336;DHT22;15592;53.656;7.276;2023-08-30T15:26:53;15.50;99.90
28336;DHT22;15592;53.656;7.276;2023-08-30T15:29:19;15.50;99.90
28336;DHT22;15592;53.656;7.276;2023-08-30T15:31:45;15.50;99.90
28336;DHT22;15592;53.656;7.276;2023-08-30T15:34:17;15.40;99.90
28336;DHT22;15592;53.656;7.276;2023-08-30T15:36:43;15.40;99.90
28336;DHT22;15592;53.656;7.276;2023-08-30T15:39:08;15.30;99.90
28336;DHT22;15592;53.656;7.276;2023-08-30T15:41:34;15.40;99.90
28336;DHT22;15592;53.656;7.276;2023-08-30T15:44:00;15.30;99.90
28336;DHT22;15592;53.656;7.276;2023-08-30T15:46:25;15.30;99.90
28336;DHT22;15592;53.656;7.276;2023-08-30T15:48:51;15.30;99.90
28336;DHT22;15592;53.656;7.276;2023-08-30T15:51:18;15.30;99.90